sensor_id;sensor_type;location;lat;lon;timestamp;P1;durP1;ratioP1;P2;durP2;ratioP2
15536;SDS011;7870;52.448;13.270;2023-04-25T00:02:13;5.88;;;2.30;;
15536;SDS011;7870;52.448;13.270;2023-04-25T00:04:41;7.00;;;2.42;;
15536;SDS011;7870;52.448;13.270;2023-04-25T00:07:09;5.47;;;2.42;;
15536;SDS011;7870;52.448;13.270;2023-04-25T00:09:35;7.30;;;2.85;;
15536;SDS011;7870;52.448;13.270;2023-04-25T00:12:02;6.78;;;2.63;;
15536;SDS011;7870;52.448;13.270;2023-04-25T00:14:29;7.13;;;2.90;;
15536;SDS011;7870;52.448;13.270;2023-04-25T00:16:55;4.85;;;2.47;;
15536;SDS011;7870;52.448;13.270;2023-04-25T00:19:22;7.22;;;2.30;;
15536;SDS011;7870;52.448;13.270;2023-04-25T00:21:49;5.35;;;2.25;;
15536;SDS011;7870;52.448;13.270;2023-04-25T00:24:16;6.78;;;2.33;;
15536;SDS011;7870;52.448;13.270;2023-04-25T00:26:42;6.32;;;2.50;;
15536;SDS011;7870;52.448;13.270;2023-04-25T00:29:09;6.65;;;2.60;;
15536;SDS011;7870;52.448;13.270;2023-04-25T00:31:37;6.60;;;2.40;;
15536;SDS011;7870;52.448;13.270;2023-04-25T00:34:05;5.30;;;2.47;;
15536;SDS011;7870;52.448;13.270;2023-04-25T00:36:32;7.88;;;2.63;;
15536;SDS011;7870;52.448;13.270;2023-04-25T00:38:59;7.95;;;3.22;;
15536;SDS011;7870;52.448;13.270;2023-04-25T00:41:26;7.07;;;2.42;;
15536;SDS011;7870;52.448;13.270;2023-04-25T00:43:53;6.70;;;2.83;;
15536;SDS011;7870;52.448;13.270;2023-04-25T00:46:21;6.55;;;2.67;;
15536;SDS011;7870;52.448;13.270;2023-04-25T00:48:47;6.40;;;2.95;;
15536;SDS011;7870;52.448;13.270;2023-04-25T00:51:15;7.68;;;2.80;;
15536;SDS011;7870;52.448;13.270;2023-04-25T00:53:43;7.82;;;3.22;;
15536;SDS011;7870;52.448;13.270;2023-04-25T00:56:10;7.45;;;3.03;;
15536;SDS011;7870;52.448;13.270;2023-04-25T00:58:37;6.35;;;3.03;;
15536;SDS011;7870;52.448;13.270;2023-04-25T01:01:04;7.60;;;3.70;;
15536;SDS011;7870;52.448;13.270;2023-04-25T01:03:33;7.78;;;3.90;;
15536;SDS011;7870;52.448;13.270;2023-04-25T01:06:02;8.85;;;3.38;;
15536;SDS011;7870;52.448;13.270;2023-04-25T01:08:29;8.82;;;4.45;;
15536;SDS011;7870;52.448;13.270;2023-04-25T01:10:56;7.35;;;3.50;;
15536;SDS011;7870;52.448;13.270;2023-04-25T01:13:23;9.27;;;3.63;;
15536;SDS011;7870;52.448;13.270;2023-04-25T01:15:49;6.10;;;3.17;;
15536;SDS011;7870;52.448;13.270;2023-04-25T01:18:16;5.25;;;3.00;;
15536;SDS011;7870;52.448;13.270;2023-04-25T01:20:43;8.13;;;3.28;;
15536;SDS011;7870;52.448;13.270;2023-04-25T01:23:10;9.23;;;3.55;;
15536;SDS011;7870;52.448;13.270;2023-04-25T01:25:37;8.15;;;3.22;;
15536;SDS011;7870;52.448;13.270;2023-04-25T01:28:03;6.88;;;3.00;;
15536;SDS011;7870;52.448;13.270;2023-04-25T01:30:31;8.35;;;4.03;;
15536;SDS011;7870;52.448;13.270;2023-04-25T01:32:57;8.70;;;4.25;;
15536;SDS011;7870;52.448;13.270;2023-04-25T01:35:27;7.25;;;3.22;;
15536;SDS011;7870;52.448;13.270;2023-04-25T01:37:54;11.07;;;3.70;;
15536;SDS011;7870;52.448;13.270;2023-04-25T01:40:21;7.28;;;3.30;;
15536;SDS011;7870;52.448;13.270;2023-04-25T01:42:49;10.65;;;3.45;;
15536;SDS011;7870;52.448;13.270;2023-04-25T01:45:16;9.00;;;3.72;;
15536;SDS011;7870;52.448;13.270;2023-04-25T01:47:43;6.55;;;3.33;;
15536;SDS011;7870;52.448;13.270;2023-04-25T01:50:13;6.70;;;3.30;;
15536;SDS011;7870;52.448;13.270;2023-04-25T01:52:39;7.63;;;4.75;;
15536;SDS011;7870;52.448;13.270;2023-04-25T01:55:07;7.70;;;3.53;;
15536;SDS011;7870;52.448;13.270;2023-04-25T01:57:36;10.55;;;3.72;;
15536;SDS011;7870;52.448;13.270;2023-04-25T02:00:04;8.95;;;3.72;;
15536;SDS011;7870;52.448;13.270;2023-04-25T02:02:38;7.05;;;3.83;;
15536;SDS011;7870;52.448;13.270;2023-04-25T02:05:28;9.75;;;4.20;;
15536;SDS011;7870;52.448;13.270;2023-04-25T02:07:55;9.80;;;4.18;;
15536;SDS011;7870;52.448;13.270;2023-04-25T02:10:24;8.68;;;3.95;;
15536;SDS011;7870;52.448;13.270;2023-04-25T02:13:07;10.43;;;3.95;;
15536;SDS011;7870;52.448;13.270;2023-04-25T02:15:54;9.38;;;5.07;;
15536;SDS011;7870;52.448;13.270;2023-04-25T02:18:21;9.02;;;4.25;;
15536;SDS011;7870;52.448;13.270;2023-04-25T02:20:47;8.10;;;3.75;;
15536;SDS011;7870;52.448;13.270;2023-04-25T02:23:14;8.55;;;3.78;;
15536;SDS011;7870;52.448;13.270;2023-04-25T02:25:45;7.38;;;4.40;;
15536;SDS011;7870;52.448;13.270;2023-04-25T02:28:12;7.65;;;3.97;;
15536;SDS011;7870;52.448;13.270;2023-04-25T02:30:39;8.70;;;3.95;;
15536;SDS011;7870;52.448;13.270;2023-04-25T02:33:05;6.15;;;3.70;;
15536;SDS011;7870;52.448;13.270;2023-04-25T02:35:32;10.05;;;4.18;;
15536;SDS011;7870;52.448;13.270;2023-04-25T02:37:59;7.25;;;4.15;;
15536;SDS011;7870;52.448;13.270;2023-04-25T02:40:25;6.95;;;4.20;;
15536;SDS011;7870;52.448;13.270;2023-04-25T02:42:53;7.45;;;4.10;;
15536;SDS011;7870;52.448;13.270;2023-04-25T02:45:19;8.23;;;4.00;;
15536;SDS011;7870;52.448;13.270;2023-04-25T02:47:46;8.82;;;4.90;;
15536;SDS011;7870;52.448;13.270;2023-04-25T02:50:12;8.18;;;4.57;;
15536;SDS011;7870;52.448;13.270;2023-04-25T02:52:39;7.32;;;4.20;;
15536;SDS011;7870;52.448;13.270;2023-04-25T02:55:14;8.60;;;4.80;;
15536;SDS011;7870;52.448;13.270;2023-04-25T02:57:42;7.97;;;4.82;;
15536;SDS011;7870;52.448;13.270;2023-04-25T03:00:12;10.00;;;4.90;;
15536;SDS011;7870;52.448;13.270;2023-04-25T03:02:40;6.93;;;4.10;;
15536;SDS011;7870;52.448;13.270;2023-04-25T03:05:07;7.85;;;4.40;;
15536;SDS011;7870;52.448;13.270;2023-04-25T03:07:34;7.80;;;4.55;;
15536;SDS011;7870;52.448;13.270;2023-04-25T03:10:01;13.38;;;4.85;;
15536;SDS011;7870;52.448;13.270;2023-04-25T03:12:29;11.25;;;4.70;;
15536;SDS011;7870;52.448;13.270;2023-04-25T03:14:56;8.50;;;4.32;;
15536;SDS011;7870;52.448;13.270;2023-04-25T03:17:22;10.70;;;4.68;;
15536;SDS011;7870;52.448;13.270;2023-04-25T03:19:49;9.80;;;4.82;;
15536;SDS011;7870;52.448;13.270;2023-04-25T03:22:16;11.73;;;4.53;;
15536;SDS011;7870;52.448;13.270;2023-04-25T03:24:42;11.02;;;4.07;;
15536;SDS011;7870;52.448;13.270;2023-04-25T03:27:09;9.15;;;4.47;;
15536;SDS011;7870;52.448;13.270;2023-04-25T03:29:36;8.95;;;4.10;;
15536;SDS011;7870;52.448;13.270;2023-04-25T03:32:03;12.50;;;5.10;;
15536;SDS011;7870;52.448;13.270;2023-04-25T03:34:30;8.30;;;4.10;;
15536;SDS011;7870;52.448;13.270;2023-04-25T03:36:57;9.45;;;4.22;;
15536;SDS011;7870;52.448;13.270;2023-04-25T03:39:23;11.27;;;5.32;;
15536;SDS011;7870;52.448;13.270;2023-04-25T03:41:51;10.32;;;4.53;;
15536;SDS011;7870;52.448;13.270;2023-04-25T03:44:19;8.75;;;4.57;;
15536;SDS011;7870;52.448;13.270;2023-04-25T03:46:46;8.85;;;4.93;;
15536;SDS011;7870;52.448;13.270;2023-04-25T03:49:13;9.18;;;4.97;;
15536;SDS011;7870;52.448;13.270;2023-04-25T03:51:58;10.50;;;5.50;;
15536;SDS011;7870;52.448;13.270;2023-04-25T03:54:25;8.93;;;4.75;;
15536;SDS011;7870;52.448;13.270;2023-04-25T03:57:03;9.90;;;4.88;;
15536;SDS011;7870;52.448;13.270;2023-04-25T03:59:33;11.10;;;4.93;;
15536;SDS011;7870;52.448;13.270;2023-04-25T04:01:59;12.73;;;6.50;;
15536;SDS011;7870;52.448;13.270;2023-04-25T04:04:27;9.82;;;5.13;;
15536;SDS011;7870;52.448;13.270;2023-04-25T04:06:54;9.55;;;4.70;;
15536;SDS011;7870;52.448;13.270;2023-04-25T04:09:25;8.48;;;4.60;;
15536;SDS011;7870;52.448;13.270;2023-04-25T04:11:53;10.32;;;6.22;;
15536;SDS011;7870;52.448;13.270;2023-04-25T04:14:19;12.35;;;4.97;;
15536;SDS011;7870;52.448;13.270;2023-04-25T04:16:47;11.23;;;5.60;;
15536;SDS011;7870;52.448;13.270;2023-04-25T04:19:14;9.55;;;4.93;;
15536;SDS011;7870;52.448;13.270;2023-04-25T04:21:46;10.75;;;5.15;;
15536;SDS011;7870;52.448;13.270;2023-04-25T04:24:13;7.78;;;4.90;;
15536;SDS011;7870;52.448;13.270;2023-04-25T04:26:51;10.57;;;5.65;;
15536;SDS011;7870;52.448;13.270;2023-04-25T04:29:44;10.52;;;5.35;;
15536;SDS011;7870;52.448;13.270;2023-04-25T04:32:21;8.75;;;5.15;;
15536;SDS011;7870;52.448;13.270;2023-04-25T04:34:49;11.32;;;6.03;;
15536;SDS011;7870;52.448;13.270;2023-04-25T04:37:17;9.45;;;5.22;;
15536;SDS011;7870;52.448;13.270;2023-04-25T04:39:45;10.35;;;4.95;;
15536;SDS011;7870;52.448;13.270;2023-04-25T04:42:32;10.02;;;4.93;;
15536;SDS011;7870;52.448;13.270;2023-04-25T04:45:13;9.15;;;5.32;;
15536;SDS011;7870;52.448;13.270;2023-04-25T04:47:59;12.23;;;6.07;;
15536;SDS011;7870;52.448;13.270;2023-04-25T04:50:45;11.07;;;6.18;;
15536;SDS011;7870;52.448;13.270;2023-04-25T04:53:24;10.27;;;5.50;;
15536;SDS011;7870;52.448;13.270;2023-04-25T04:56:09;13.18;;;5.93;;
15536;SDS011;7870;52.448;13.270;2023-04-25T04:58:53;10.93;;;5.45;;
15536;SDS011;7870;52.448;13.270;2023-04-25T05:01:40;12.80;;;5.93;;
15536;SDS011;7870;52.448;13.270;2023-04-25T05:04:29;10.90;;;6.20;;
15536;SDS011;7870;52.448;13.270;2023-04-25T05:07:03;11.70;;;5.05;;
15536;SDS011;7870;52.448;13.270;2023-04-25T05:09:41;12.63;;;5.63;;
15536;SDS011;7870;52.448;13.270;2023-04-25T05:12:18;11.82;;;5.88;;
15536;SDS011;7870;52.448;13.270;2023-04-25T05:14:53;9.15;;;4.88;;
15536;SDS011;7870;52.448;13.270;2023-04-25T05:17:31;12.63;;;5.40;;
15536;SDS011;7870;52.448;13.270;2023-04-25T05:20:14;11.77;;;4.78;;
15536;SDS011;7870;52.448;13.270;2023-04-25T05:23:00;10.32;;;4.82;;
15536;SDS011;7870;52.448;13.270;2023-04-25T05:25:40;11.82;;;5.25;;
15536;SDS011;7870;52.448;13.270;2023-04-25T05:28:19;11.25;;;5.28;;
15536;SDS011;7870;52.448;13.270;2023-04-25T05:30:58;9.80;;;5.70;;
15536;SDS011;7870;52.448;13.270;2023-04-25T05:33:28;12.45;;;5.03;;
15536;SDS011;7870;52.448;13.270;2023-04-25T05:35:55;11.55;;;6.53;;
15536;SDS011;7870;52.448;13.270;2023-04-25T05:38:23;11.70;;;5.93;;
15536;SDS011;7870;52.448;13.270;2023-04-25T05:41:10;11.55;;;6.70;;
15536;SDS011;7870;52.448;13.270;2023-04-25T05:43:56;9.55;;;5.38;;
15536;SDS011;7870;52.448;13.270;2023-04-25T05:46:39;12.05;;;5.50;;
15536;SDS011;7870;52.448;13.270;2023-04-25T05:49:12;13.40;;;6.78;;
15536;SDS011;7870;52.448;13.270;2023-04-25T05:51:56;11.35;;;5.78;;
15536;SDS011;7870;52.448;13.270;2023-04-25T05:54:41;11.30;;;6.10;;
15536;SDS011;7870;52.448;13.270;2023-04-25T05:57:08;12.95;;;5.53;;
15536;SDS011;7870;52.448;13.270;2023-04-25T05:59:34;8.70;;;5.60;;
15536;SDS011;7870;52.448;13.270;2023-04-25T06:02:02;12.07;;;5.95;;
15536;SDS011;7870;52.448;13.270;2023-04-25T06:04:31;11.30;;;5.55;;
15536;SDS011;7870;52.448;13.270;2023-04-25T06:06:59;13.55;;;6.22;;
15536;SDS011;7870;52.448;13.270;2023-04-25T06:09:26;12.60;;;5.93;;
15536;SDS011;7870;52.448;13.270;2023-04-25T06:11:53;9.35;;;5.65;;
15536;SDS011;7870;52.448;13.270;2023-04-25T06:14:19;14.55;;;6.55;;
15536;SDS011;7870;52.448;13.270;2023-04-25T06:16:48;9.02;;;5.57;;
15536;SDS011;7870;52.448;13.270;2023-04-25T06:19:15;11.57;;;5.80;;
15536;SDS011;7870;52.448;13.270;2023-04-25T06:21:43;11.68;;;6.40;;
15536;SDS011;7870;52.448;13.270;2023-04-25T06:24:10;12.60;;;6.75;;
15536;SDS011;7870;52.448;13.270;2023-04-25T06:26:36;14.07;;;6.22;;
15536;SDS011;7870;52.448;13.270;2023-04-25T06:29:03;10.48;;;6.35;;
15536;SDS011;7870;52.448;13.270;2023-04-25T06:31:30;10.25;;;6.25;;
15536;SDS011;7870;52.448;13.270;2023-04-25T06:33:59;15.45;;;6.05;;
15536;SDS011;7870;52.448;13.270;2023-04-25T06:36:27;13.27;;;5.75;;
15536;SDS011;7870;52.448;13.270;2023-04-25T06:39:00;11.77;;;6.53;;
15536;SDS011;7870;52.448;13.270;2023-04-25T06:41:27;11.43;;;6.05;;
15536;SDS011;7870;52.448;13.270;2023-04-25T06:43:58;11.00;;;5.90;;
15536;SDS011;7870;52.448;13.270;2023-04-25T06:46:49;13.85;;;7.03;;
15536;SDS011;7870;52.448;13.270;2023-04-25T06:49:16;12.38;;;5.40;;
15536;SDS011;7870;52.448;13.270;2023-04-25T06:51:42;8.77;;;5.40;;
15536;SDS011;7870;52.448;13.270;2023-04-25T06:54:09;8.10;;;5.60;;
15536;SDS011;7870;52.448;13.270;2023-04-25T06:56:48;9.77;;;4.80;;
15536;SDS011;7870;52.448;13.270;2023-04-25T06:59:15;9.73;;;4.93;;
15536;SDS011;7870;52.448;13.270;2023-04-25T07:01:44;10.23;;;4.55;;
15536;SDS011;7870;52.448;13.270;2023-04-25T07:04:15;10.00;;;4.82;;
15536;SDS011;7870;52.448;13.270;2023-04-25T07:06:48;11.50;;;4.75;;
15536;SDS011;7870;52.448;13.270;2023-04-25T07:09:18;8.98;;;5.07;;
15536;SDS011;7870;52.448;13.270;2023-04-25T07:11:47;12.65;;;5.10;;
15536;SDS011;7870;52.448;13.270;2023-04-25T07:14:13;8.05;;;5.10;;
15536;SDS011;7870;52.448;13.270;2023-04-25T07:16:41;8.82;;;5.22;;
15536;SDS011;7870;52.448;13.270;2023-04-25T07:19:09;8.90;;;5.10;;
15536;SDS011;7870;52.448;13.270;2023-04-25T07:21:37;10.68;;;4.93;;
15536;SDS011;7870;52.448;13.270;2023-04-25T07:24:04;13.50;;;5.45;;
15536;SDS011;7870;52.448;13.270;2023-04-25T07:26:35;11.60;;;5.07;;
15536;SDS011;7870;52.448;13.270;2023-04-25T07:29:22;15.63;;;5.50;;
15536;SDS011;7870;52.448;13.270;2023-04-25T07:31:49;16.63;;;5.45;;
15536;SDS011;7870;52.448;13.270;2023-04-25T07:34:16;12.68;;;4.82;;
15536;SDS011;7870;52.448;13.270;2023-04-25T07:36:43;12.30;;;5.60;;
15536;SDS011;7870;52.448;13.270;2023-04-25T07:39:09;14.88;;;5.38;;
15536;SDS011;7870;52.448;13.270;2023-04-25T07:41:37;14.27;;;5.38;;
15536;SDS011;7870;52.448;13.270;2023-04-25T07:44:04;12.48;;;5.95;;
15536;SDS011;7870;52.448;13.270;2023-04-25T07:46:33;14.38;;;5.10;;
15536;SDS011;7870;52.448;13.270;2023-04-25T07:49:00;12.00;;;3.92;;
15536;SDS011;7870;52.448;13.270;2023-04-25T07:51:26;14.95;;;5.10;;
15536;SDS011;7870;52.448;13.270;2023-04-25T07:53:57;10.57;;;5.40;;
15536;SDS011;7870;52.448;13.270;2023-04-25T07:56:24;15.77;;;5.88;;
15536;SDS011;7870;52.448;13.270;2023-04-25T07:58:51;13.30;;;5.25;;
15536;SDS011;7870;52.448;13.270;2023-04-25T08:01:19;18.20;;;5.65;;
15536;SDS011;7870;52.448;13.270;2023-04-25T08:04:00;17.85;;;5.78;;
15536;SDS011;7870;52.448;13.270;2023-04-25T08:06:42;20.25;;;5.80;;
15536;SDS011;7870;52.448;13.270;2023-04-25T08:09:17;15.95;;;4.85;;
15536;SDS011;7870;52.448;13.270;2023-04-25T08:11:43;16.58;;;5.57;;
15536;SDS011;7870;52.448;13.270;2023-04-25T08:14:13;14.73;;;5.10;;
15536;SDS011;7870;52.448;13.270;2023-04-25T08:16:42;14.70;;;4.93;;
15536;SDS011;7870;52.448;13.270;2023-04-25T08:19:09;12.77;;;5.32;;
15536;SDS011;7870;52.448;13.270;2023-04-25T08:21:37;17.75;;;4.93;;
15536;SDS011;7870;52.448;13.270;2023-04-25T08:24:08;17.50;;;4.82;;
15536;SDS011;7870;52.448;13.270;2023-04-25T08:26:37;14.35;;;4.60;;
15536;SDS011;7870;52.448;13.270;2023-04-25T08:29:06;13.90;;;5.18;;
15536;SDS011;7870;52.448;13.270;2023-04-25T08:31:35;12.00;;;4.10;;
15536;SDS011;7870;52.448;13.270;2023-04-25T08:34:03;16.13;;;5.05;;
15536;SDS011;7870;52.448;13.270;2023-04-25T08:36:44;16.83;;;4.82;;
15536;SDS011;7870;52.448;13.270;2023-04-25T08:39:21;14.73;;;4.65;;
15536;SDS011;7870;52.448;13.270;2023-04-25T08:42:12;17.08;;;4.35;;
15536;SDS011;7870;52.448;13.270;2023-04-25T08:44:40;13.85;;;3.95;;
15536;SDS011;7870;52.448;13.270;2023-04-25T08:47:07;15.98;;;5.68;;
15536;SDS011;7870;52.448;13.270;2023-04-25T08:49:43;11.10;;;3.92;;
15536;SDS011;7870;52.448;13.270;2023-04-25T08:52:11;16.35;;;4.32;;
15536;SDS011;7870;52.448;13.270;2023-04-25T08:54:41;15.27;;;4.50;;
15536;SDS011;7870;52.448;13.270;2023-04-25T08:57:10;14.88;;;4.28;;
15536;SDS011;7870;52.448;13.270;2023-04-25T08:59:37;14.32;;;4.43;;
15536;SDS011;7870;52.448;13.270;2023-04-25T09:02:06;16.63;;;4.07;;
15536;SDS011;7870;52.448;13.270;2023-04-25T09:04:35;11.43;;;4.47;;
15536;SDS011;7870;52.448;13.270;2023-04-25T09:07:02;13.60;;;4.20;;
15536;SDS011;7870;52.448;13.270;2023-04-25T09:09:29;16.13;;;4.55;;
15536;SDS011;7870;52.448;13.270;2023-04-25T09:11:55;15.40;;;3.80;;
15536;SDS011;7870;52.448;13.270;2023-04-25T09:14:23;19.70;;;5.05;;
15536;SDS011;7870;52.448;13.270;2023-04-25T09:17:01;11.52;;;3.25;;
15536;SDS011;7870;52.448;13.270;2023-04-25T09:19:51;13.73;;;4.40;;
15536;SDS011;7870;52.448;13.270;2023-04-25T09:22:25;14.73;;;3.90;;
15536;SDS011;7870;52.448;13.270;2023-04-25T09:24:52;12.38;;;4.28;;
15536;SDS011;7870;52.448;13.270;2023-04-25T09:27:21;17.30;;;4.60;;
15536;SDS011;7870;52.448;13.270;2023-04-25T09:30:11;13.75;;;3.97;;
15536;SDS011;7870;52.448;13.270;2023-04-25T09:32:55;16.10;;;5.05;;
15536;SDS011;7870;52.448;13.270;2023-04-25T09:35:24;11.80;;;4.30;;
15536;SDS011;7870;52.448;13.270;2023-04-25T09:37:53;13.90;;;4.00;;
15536;SDS011;7870;52.448;13.270;2023-04-25T09:40:46;12.85;;;4.60;;
15536;SDS011;7870;52.448;13.270;2023-04-25T09:43:23;14.52;;;4.05;;
15536;SDS011;7870;52.448;13.270;2023-04-25T09:45:51;12.80;;;4.43;;
15536;SDS011;7870;52.448;13.270;2023-04-25T09:51:03;14.65;;;3.97;;
15536;SDS011;7870;52.448;13.270;2023-04-25T09:53:41;12.05;;;3.88;;
15536;SDS011;7870;52.448;13.270;2023-04-25T09:56:41;16.77;;;5.35;;
15536;SDS011;7870;52.448;13.270;2023-04-25T09:59:09;13.30;;;4.13;;
15536;SDS011;7870;52.448;13.270;2023-04-25T10:01:36;11.70;;;3.30;;
15536;SDS011;7870;52.448;13.270;2023-04-25T10:04:11;15.13;;;4.53;;
15536;SDS011;7870;52.448;13.270;2023-04-25T10:06:49;12.05;;;3.60;;
15536;SDS011;7870;52.448;13.270;2023-04-25T10:09:19;13.75;;;4.03;;
15536;SDS011;7870;52.448;13.270;2023-04-25T10:11:47;10.52;;;4.00;;
15536;SDS011;7870;52.448;13.270;2023-04-25T10:14:16;11.13;;;3.65;;
15536;SDS011;7870;52.448;13.270;2023-04-25T10:16:43;12.98;;;3.50;;
15536;SDS011;7870;52.448;13.270;2023-04-25T10:19:10;11.30;;;3.33;;
15536;SDS011;7870;52.448;13.270;2023-04-25T10:21:40;10.40;;;3.03;;
15536;SDS011;7870;52.448;13.270;2023-04-25T10:24:12;10.27;;;3.33;;
15536;SDS011;7870;52.448;13.270;2023-04-25T10:26:39;14.32;;;3.97;;
15536;SDS011;7870;52.448;13.270;2023-04-25T10:29:06;16.35;;;3.75;;
15536;SDS011;7870;52.448;13.270;2023-04-25T10:31:33;9.32;;;3.17;;
15536;SDS011;7870;52.448;13.270;2023-04-25T10:34:00;12.30;;;3.20;;
15536;SDS011;7870;52.448;13.270;2023-04-25T10:36:31;11.77;;;2.97;;
15536;SDS011;7870;52.448;13.270;2023-04-25T10:38:58;13.40;;;4.05;;
15536;SDS011;7870;52.448;13.270;2023-04-25T10:41:48;13.88;;;3.60;;
15536;SDS011;7870;52.448;13.270;2023-04-25T10:44:19;12.27;;;3.55;;
15536;SDS011;7870;52.448;13.270;2023-04-25T10:46:46;13.23;;;3.20;;
15536;SDS011;7870;52.448;13.270;2023-04-25T10:52:16;12.35;;;3.00;;
15536;SDS011;7870;52.448;13.270;2023-04-25T10:54:52;12.25;;;3.47;;
15536;SDS011;7870;52.448;13.270;2023-04-25T11:00:01;9.27;;;3.47;;
15536;SDS011;7870;52.448;13.270;2023-04-25T11:02:32;10.60;;;3.17;;
15536;SDS011;7870;52.448;13.270;2023-04-25T11:05:03;12.40;;;3.80;;
15536;SDS011;7870;52.448;13.270;2023-04-25T11:08:13;10.32;;;3.20;;
15536;SDS011;7870;52.448;13.270;2023-04-25T11:10:42;12.07;;;3.70;;
15536;SDS011;7870;52.448;13.270;2023-04-25T11:13:10;10.27;;;3.42;;
15536;SDS011;7870;52.448;13.270;2023-04-25T11:15:37;8.70;;;3.00;;
15536;SDS011;7870;52.448;13.270;2023-04-25T11:18:03;8.60;;;3.03;;
15536;SDS011;7870;52.448;13.270;2023-04-25T11:20:30;8.70;;;3.30;;
15536;SDS011;7870;52.448;13.270;2023-04-25T11:22:57;10.07;;;3.15;;
15536;SDS011;7870;52.448;13.270;2023-04-25T11:25:25;8.32;;;2.40;;
15536;SDS011;7870;52.448;13.270;2023-04-25T11:27:52;10.32;;;2.90;;
15536;SDS011;7870;52.448;13.270;2023-04-25T11:30:20;8.10;;;2.70;;
15536;SDS011;7870;52.448;13.270;2023-04-25T11:32:47;7.90;;;2.40;;
15536;SDS011;7870;52.448;13.270;2023-04-25T11:35:14;7.82;;;2.65;;
15536;SDS011;7870;52.448;13.270;2023-04-25T11:37:42;7.50;;;2.88;;
15536;SDS011;7870;52.448;13.270;2023-04-25T11:40:09;9.73;;;2.70;;
15536;SDS011;7870;52.448;13.270;2023-04-25T11:42:37;13.00;;;3.25;;
15536;SDS011;7870;52.448;13.270;2023-04-25T11:45:04;9.98;;;2.67;;
15536;SDS011;7870;52.448;13.270;2023-04-25T11:47:32;7.03;;;2.05;;
15536;SDS011;7870;52.448;13.270;2023-04-25T11:49:59;9.27;;;2.70;;
15536;SDS011;7870;52.448;13.270;2023-04-25T11:52:37;9.23;;;3.33;;
15536;SDS011;7870;52.448;13.270;2023-04-25T11:55:12;7.30;;;3.30;;
15536;SDS011;7870;52.448;13.270;2023-04-25T11:57:40;8.50;;;2.38;;
15536;SDS011;7870;52.448;13.270;2023-04-25T12:02:44;12.10;;;2.78;;
15536;SDS011;7870;52.448;13.270;2023-04-25T12:05:12;9.32;;;3.08;;
15536;SDS011;7870;52.448;13.270;2023-04-25T12:07:56;8.60;;;3.42;;
15536;SDS011;7870;52.448;13.270;2023-04-25T12:10:24;8.45;;;3.10;;
15536;SDS011;7870;52.448;13.270;2023-04-25T12:12:51;10.18;;;2.88;;
15536;SDS011;7870;52.448;13.270;2023-04-25T12:15:23;14.90;;;3.25;;
15536;SDS011;7870;52.448;13.270;2023-04-25T12:17:52;10.30;;;2.38;;
15536;SDS011;7870;52.448;13.270;2023-04-25T12:20:28;9.10;;;2.85;;
15536;SDS011;7870;52.448;13.270;2023-04-25T12:22:57;8.18;;;2.20;;
15536;SDS011;7870;52.448;13.270;2023-04-25T12:25:40;8.45;;;3.10;;
15536;SDS011;7870;52.448;13.270;2023-04-25T12:28:11;10.23;;;2.65;;
15536;SDS011;7870;52.448;13.270;2023-04-25T12:30:53;10.00;;;3.17;;
15536;SDS011;7870;52.448;13.270;2023-04-25T12:33:24;8.30;;;2.22;;
15536;SDS011;7870;52.448;13.270;2023-04-25T12:35:52;12.52;;;2.65;;
15536;SDS011;7870;52.448;13.270;2023-04-25T12:38:23;8.43;;;2.50;;
15536;SDS011;7870;52.448;13.270;2023-04-25T12:40:53;7.97;;;2.60;;
15536;SDS011;7870;52.448;13.270;2023-04-25T12:43:20;8.82;;;2.58;;
15536;SDS011;7870;52.448;13.270;2023-04-25T12:45:51;9.00;;;3.15;;
15536;SDS011;7870;52.448;13.270;2023-04-25T12:48:19;7.70;;;2.33;;
15536;SDS011;7870;52.448;13.270;2023-04-25T12:50:46;9.52;;;2.92;;
15536;SDS011;7870;52.448;13.270;2023-04-25T12:53:16;7.43;;;2.88;;
15536;SDS011;7870;52.448;13.270;2023-04-25T12:55:43;8.98;;;2.55;;
15536;SDS011;7870;52.448;13.270;2023-04-25T12:58:12;11.75;;;2.50;;
15536;SDS011;7870;52.448;13.270;2023-04-25T13:00:39;9.73;;;2.90;;
15536;SDS011;7870;52.448;13.270;2023-04-25T13:03:06;7.22;;;2.40;;
15536;SDS011;7870;52.448;13.270;2023-04-25T13:05:33;10.00;;;2.95;;
15536;SDS011;7870;52.448;13.270;2023-04-25T13:07:59;7.70;;;2.15;;
15536;SDS011;7870;52.448;13.270;2023-04-25T13:10:26;9.65;;;2.67;;
15536;SDS011;7870;52.448;13.270;2023-04-25T13:12:53;5.95;;;2.80;;
15536;SDS011;7870;52.448;13.270;2023-04-25T13:15:19;8.55;;;2.25;;
15536;SDS011;7870;52.448;13.270;2023-04-25T13:17:46;6.55;;;2.60;;
15536;SDS011;7870;52.448;13.270;2023-04-25T13:20:13;7.75;;;2.83;;
15536;SDS011;7870;52.448;13.270;2023-04-25T13:22:41;10.38;;;2.03;;
15536;SDS011;7870;52.448;13.270;2023-04-25T13:25:08;6.55;;;2.35;;
15536;SDS011;7870;52.448;13.270;2023-04-25T13:27:35;7.75;;;2.38;;
15536;SDS011;7870;52.448;13.270;2023-04-25T13:30:03;7.57;;;2.38;;
15536;SDS011;7870;52.448;13.270;2023-04-25T13:32:33;8.37;;;2.40;;
15536;SDS011;7870;52.448;13.270;2023-04-25T13:35:03;4.07;;;1.73;;
15536;SDS011;7870;52.448;13.270;2023-04-25T13:37:37;5.00;;;2.03;;
15536;SDS011;7870;52.448;13.270;2023-04-25T13:40:05;8.45;;;2.42;;
15536;SDS011;7870;52.448;13.270;2023-04-25T13:42:35;8.00;;;2.05;;
15536;SDS011;7870;52.448;13.270;2023-04-25T13:45:02;8.02;;;2.58;;
15536;SDS011;7870;52.448;13.270;2023-04-25T13:47:29;9.68;;;2.35;;
15536;SDS011;7870;52.448;13.270;2023-04-25T13:49:56;7.90;;;2.60;;
15536;SDS011;7870;52.448;13.270;2023-04-25T13:52:23;8.02;;;2.30;;
15536;SDS011;7870;52.448;13.270;2023-04-25T13:54:53;7.25;;;2.72;;
15536;SDS011;7870;52.448;13.270;2023-04-25T13:57:20;7.05;;;2.13;;
15536;SDS011;7870;52.448;13.270;2023-04-25T13:59:46;9.20;;;2.30;;
15536;SDS011;7870;52.448;13.270;2023-04-25T14:02:13;7.25;;;2.58;;
15536;SDS011;7870;52.448;13.270;2023-04-25T14:04:40;10.60;;;2.92;;
15536;SDS011;7870;52.448;13.270;2023-04-25T14:07:07;12.27;;;2.38;;
15536;SDS011;7870;52.448;13.270;2023-04-25T14:09:34;10.98;;;2.50;;
15536;SDS011;7870;52.448;13.270;2023-04-25T14:12:01;5.82;;;2.20;;
15536;SDS011;7870;52.448;13.270;2023-04-25T14:14:28;9.32;;;3.58;;
15536;SDS011;7870;52.448;13.270;2023-04-25T14:16:55;10.10;;;2.45;;
15536;SDS011;7870;52.448;13.270;2023-04-25T14:19:23;8.73;;;2.00;;
15536;SDS011;7870;52.448;13.270;2023-04-25T14:21:50;8.02;;;2.45;;
15536;SDS011;7870;52.448;13.270;2023-04-25T14:24:17;9.80;;;2.92;;
15536;SDS011;7870;52.448;13.270;2023-04-25T14:26:43;8.27;;;2.42;;
15536;SDS011;7870;52.448;13.270;2023-04-25T14:29:10;7.72;;;2.20;;
15536;SDS011;7870;52.448;13.270;2023-04-25T14:31:38;9.38;;;2.70;;
15536;SDS011;7870;52.448;13.270;2023-04-25T14:34:06;7.72;;;2.28;;
15536;SDS011;7870;52.448;13.270;2023-04-25T14:36:34;8.60;;;2.38;;
15536;SDS011;7870;52.448;13.270;2023-04-25T14:39:01;13.13;;;2.85;;
15536;SDS011;7870;52.448;13.270;2023-04-25T14:41:28;7.88;;;2.78;;
15536;SDS011;7870;52.448;13.270;2023-04-25T14:43:54;8.95;;;2.63;;
15536;SDS011;7870;52.448;13.270;2023-04-25T14:46:23;7.93;;;2.42;;
15536;SDS011;7870;52.448;13.270;2023-04-25T14:48:49;8.20;;;2.95;;
15536;SDS011;7870;52.448;13.270;2023-04-25T14:51:16;7.45;;;2.40;;
15536;SDS011;7870;52.448;13.270;2023-04-25T14:53:43;8.75;;;2.58;;
15536;SDS011;7870;52.448;13.270;2023-04-25T14:56:10;12.27;;;3.30;;
15536;SDS011;7870;52.448;13.270;2023-04-25T14:58:36;7.63;;;2.45;;
15536;SDS011;7870;52.448;13.270;2023-04-25T15:01:05;10.05;;;3.13;;
15536;SDS011;7870;52.448;13.270;2023-04-25T15:03:33;6.60;;;2.15;;
15536;SDS011;7870;52.448;13.270;2023-04-25T15:06:00;6.75;;;2.40;;
15536;SDS011;7870;52.448;13.270;2023-04-25T15:08:26;8.30;;;2.15;;
15536;SDS011;7870;52.448;13.270;2023-04-25T15:10:53;9.38;;;2.80;;